sensor_id;sensor_type;location;lat;lon;timestamp;pressure;altitude;pressure_sealevel;temperature;humidity
41712;BME280;27399;51.516;13.670;2023-02-20T00:00:06;101217.53;;;4.99;82.78
41712;BME280;27399;51.516;13.670;2023-02-20T00:02:32;101227.50;;;5.09;82.69
41712;BME280;27399;51.516;13.670;2023-02-20T00:04:57;101220.41;;;5.08;82.70
41712;BME280;27399;51.516;13.670;2023-02-20T00:07:23;101226.63;;;5.10;82.82
41712;BME280;27399;51.516;13.670;2023-02-20T00:09:49;101224.13;;;5.15;81.88
41712;BME280;27399;51.516;13.670;2023-02-20T00:12:14;101226.88;;;5.19;82.12
41712;BME280;27399;51.516;13.670;2023-02-20T00:14:40;101219.22;;;5.30;82.27
41712;BME280;27399;51.516;13.670;2023-02-20T00:17:06;101205.44;;;5.43;81.83
41712;BME280;27399;51.516;13.670;2023-02-20T00:19:31;101199.31;;;5.45;81.12
41712;BME280;27399;51.516;13.670;2023-02-20T00:21:57;101191.44;;;5.48;79.72
41712;BME280;27399;51.516;13.670;2023-02-20T00:24:22;101191.56;;;5.52;80.44
41712;BME280;27399;51.516;13.670;2023-02-20T00:26:51;101193.34;;;5.53;81.02
41712;BME280;27399;51.516;13.670;2023-02-20T00:29:20;101183.66;;;5.54;81.43
41712;BME280;27399;51.516;13.670;2023-02-20T00:31:56;101178.44;;;5.57;80.27
41712;BME280;27399;51.516;13.670;2023-02-20T00:34:24;101178.56;;;5.63;80.23
41712;BME280;27399;51.516;13.670;2023-02-20T00:36:51;101173.44;;;5.69;79.80
41712;BME280;27399;51.516;13.670;2023-02-20T00:39:16;101165.63;;;5.76;79.84
41712;BME280;27399;51.516;13.670;2023-02-20T00:41:42;101166.28;;;5.65;79.37
41712;BME280;27399;51.516;13.670;2023-02-20T00:44:07;101165.22;;;5.57;81.03
41712;BME280;27399;51.516;13.670;2023-02-20T00:46:33;101142.28;;;5.57;80.69
41712;BME280;27399;51.516;13.670;2023-02-20T00:48:59;101149.53;;;5.66;80.44
41712;BME280;27399;51.516;13.670;2023-02-20T00:51:25;101147.63;;;5.59;81.61
41712;BME280;27399;51.516;13.670;2023-02-20T00:53:51;101140.56;;;5.59;80.17
41712;BME280;27399;51.516;13.670;2023-02-20T00:56:16;101142.16;;;5.53;81.00
41712;BME280;27399;51.516;13.670;2023-02-20T00:58:42;101149.34;;;5.57;80.75
41712;BME280;27399;51.516;13.670;2023-02-20T01:01:08;101155.34;;;5.50;81.36
41712;BME280;27399;51.516;13.670;2023-02-20T01:03:33;101140.78;;;5.32;81.07
41712;BME280;27399;51.516;13.670;2023-02-20T01:05:59;101152.22;;;5.31;80.68
41712;BME280;27399;51.516;13.670;2023-02-20T01:08:25;101144.16;;;5.25;80.43
41712;BME280;27399;51.516;13.670;2023-02-20T01:10:51;101139.56;;;5.18;80.74
41712;BME280;27399;51.516;13.670;2023-02-20T01:13:16;101138.47;;;5.09;80.92
41712;BME280;27399;51.516;13.670;2023-02-20T01:15:42;101145.00;;;5.24;79.82
41712;BME280;27399;51.516;13.670;2023-02-20T01:18:08;101141.94;;;5.07;80.00
41712;BME280;27399;51.516;13.670;2023-02-20T01:20:33;101139.78;;;4.92;80.53
41712;BME280;27399;51.516;13.670;2023-02-20T01:22:59;101115.91;;;4.89;80.27
41712;BME280;27399;51.516;13.670;2023-02-20T01:25:24;101123.06;;;4.93;79.86
41712;BME280;27399;51.516;13.670;2023-02-20T01:27:50;101125.88;;;4.99;79.78
41712;BME280;27399;51.516;13.670;2023-02-20T01:30:16;101119.50;;;4.57;80.96
41712;BME280;27399;51.516;13.670;2023-02-20T01:32:41;101129.63;;;4.74;80.30
41712;BME280;27399;51.516;13.670;2023-02-20T01:35:07;101134.63;;;4.63;80.97
41712;BME280;27399;51.516;13.670;2023-02-20T01:37:33;101139.81;;;4.60;80.52
41712;BME280;27399;51.516;13.670;2023-02-20T01:39:59;101128.28;;;4.56;80.78
41712;BME280;27399;51.516;13.670;2023-02-20T01:42:30;101122.66;;;4.44;81.23
41712;BME280;27399;51.516;13.670;2023-02-20T01:45:27;101112.34;;;4.53;80.19
41712;BME280;27399;51.516;13.670;2023-02-20T01:47:55;101118.81;;;4.32;81.40
41712;BME280;27399;51.516;13.670;2023-02-20T01:50:38;101103.31;;;4.14;81.30
41712;BME280;27399;51.516;13.670;2023-02-20T01:53:08;101100.19;;;4.28;81.17
41712;BME280;27399;51.516;13.670;2023-02-20T01:55:39;101099.84;;;4.15;81.53
41712;BME280;27399;51.516;13.670;2023-02-20T01:58:20;101105.13;;;4.15;81.30
41712;BME280;27399;51.516;13.670;2023-02-20T02:00:47;101103.44;;;4.17;80.83
41712;BME280;27399;51.516;13.670;2023-02-20T02:03:16;101091.53;;;4.01;81.78
41712;BME280;27399;51.516;13.670;2023-02-20T02:05:46;101086.97;;;3.96;81.69
41712;BME280;27399;51.516;13.670;2023-02-20T02:08:14;101069.78;;;4.10;81.68
41712;BME280;27399;51.516;13.670;2023-02-20T02:10:51;101076.63;;;4.03;81.65
41712;BME280;27399;51.516;13.670;2023-02-20T02:13:19;101078.44;;;4.05;82.51
41712;BME280;27399;51.516;13.670;2023-02-20T02:15:45;101088.78;;;4.29;82.16
41712;BME280;27399;51.516;13.670;2023-02-20T02:18:20;101075.69;;;4.32;81.82
41712;BME280;27399;51.516;13.670;2023-02-20T02:26:59;101050.38;;;4.08;82.44
41712;BME280;27399;51.516;13.670;2023-02-20T02:40:25;101043.03;;;4.63;86.82
41712;BME280;27399;51.516;13.670;2023-02-20T02:43:05;101021.47;;;4.81;87.04
41712;BME280;27399;51.516;13.670;2023-02-20T02:45:46;101012.78;;;4.87;87.46
41712;BME280;27399;51.516;13.670;2023-02-20T02:48:18;101008.97;;;4.74;88.68
41712;BME280;27399;51.516;13.670;2023-02-20T02:50:47;101011.41;;;5.03;88.75
41712;BME280;27399;51.516;13.670;2023-02-20T02:53:14;101020.31;;;5.07;88.39
41712;BME280;27399;51.516;13.670;2023-02-20T02:55:40;101006.91;;;5.37;87.07
41712;BME280;27399;51.516;13.670;2023-02-20T02:58:06;101014.09;;;5.43;86.76
41712;BME280;27399;51.516;13.670;2023-02-20T03:00:54;101015.13;;;5.51;86.84
41712;BME280;27399;51.516;13.670;2023-02-20T03:03:27;101022.06;;;5.46;86.92
41712;BME280;27399;51.516;13.670;2023-02-20T03:06:03;101017.84;;;5.54;86.84
41712;BME280;27399;51.516;13.670;2023-02-20T03:08:43;101025.03;;;5.60;87.12
41712;BME280;27399;51.516;13.670;2023-02-20T03:11:13;101016.44;;;5.72;86.48
41712;BME280;27399;51.516;13.670;2023-02-20T03:13:52;101013.03;;;5.78;86.58
41712;BME280;27399;51.516;13.670;2023-02-20T03:19:09;101010.66;;;5.90;86.79
41712;BME280;27399;51.516;13.670;2023-02-20T03:21:43;101013.13;;;5.81;86.54
41712;BME280;27399;51.516;13.670;2023-02-20T03:24:12;100995.28;;;5.72;86.58
41712;BME280;27399;51.516;13.670;2023-02-20T03:26:41;100999.31;;;5.99;86.77
41712;BME280;27399;51.516;13.670;2023-02-20T03:29:13;101003.09;;;6.10;85.84
41712;BME280;27399;51.516;13.670;2023-02-20T03:31:51;101004.44;;;5.88;86.67
41712;BME280;27399;51.516;13.670;2023-02-20T03:34:39;101003.06;;;6.07;86.92
41712;BME280;27399;51.516;13.670;2023-02-20T03:37:24;100998.59;;;6.04;86.78
41712;BME280;27399;51.516;13.670;2023-02-20T03:40:12;100997.88;;;6.12;87.30
41712;BME280;27399;51.516;13.670;2023-02-20T03:43:02;100994.28;;;6.10;87.99
41712;BME280;27399;51.516;13.670;2023-02-20T03:45:48;101001.47;;;6.15;88.08
41712;BME280;27399;51.516;13.670;2023-02-20T03:49:03;100981.81;;;6.04;88.28
41712;BME280;27399;51.516;13.670;2023-02-20T03:51:03;100975.91;;;6.19;87.82
41712;BME280;27399;51.516;13.670;2023-02-20T03:53:47;100975.00;;;6.17;88.36
41712;BME280;27399;51.516;13.670;2023-02-20T03:56:17;100969.91;;;6.29;87.86
41712;BME280;27399;51.516;13.670;2023-02-20T03:58:44;100971.00;;;6.41;87.72
41712;BME280;27399;51.516;13.670;2023-02-20T04:01:12;100955.16;;;6.44;87.60
41712;BME280;27399;51.516;13.670;2023-02-20T04:03:43;100969.38;;;6.49;87.07
41712;BME280;27399;51.516;13.670;2023-02-20T04:06:14;100969.31;;;6.46;87.63
41712;BME280;27399;51.516;13.670;2023-02-20T04:08:46;100963.41;;;6.61;86.96
41712;BME280;27399;51.516;13.670;2023-02-20T04:13:46;100962.69;;;6.73;86.73
41712;BME280;27399;51.516;13.670;2023-02-20T04:16:14;100951.00;;;6.60;87.22
41712;BME280;27399;51.516;13.670;2023-02-20T04:18:40;100946.53;;;6.57;87.08
41712;BME280;27399;51.516;13.670;2023-02-20T04:21:11;100943.13;;;6.64;87.08
41712;BME280;27399;51.516;13.670;2023-02-20T04:23:41;100948.44;;;6.64;87.15
41712;BME280;27399;51.516;13.670;2023-02-20T04:26:13;100948.53;;;6.71;86.82
41712;BME280;27399;51.516;13.670;2023-02-20T04:28:41;100957.22;;;6.62;87.77
41712;BME280;27399;51.516;13.670;2023-02-20T04:31:06;100954.88;;;6.80;86.91
41712;BME280;27399;51.516;13.670;2023-02-20T04:33:32;100956.59;;;6.78;86.84
41712;BME280;27399;51.516;13.670;2023-02-20T04:35:58;100953.75;;;6.67;87.15
41712;BME280;27399;51.516;13.670;2023-02-20T04:38:23;100960.97;;;6.76;87.28
41712;BME280;27399;51.516;13.670;2023-02-20T04:40:49;100970.66;;;6.73;87.87
41712;BME280;27399;51.516;13.670;2023-02-20T04:43:15;100958.22;;;6.69;87.88
41712;BME280;27399;51.516;13.670;2023-02-20T04:45:40;100956.53;;;6.75;87.91
41712;BME280;27399;51.516;13.670;2023-02-20T04:48:06;100958.38;;;6.79;87.58
41712;BME280;27399;51.516;13.670;2023-02-20T04:50:33;100963.56;;;6.73;88.01
41712;BME280;27399;51.516;13.670;2023-02-20T04:52:59;100949.91;;;7.04;87.29
41712;BME280;27399;51.516;13.670;2023-02-20T04:55:26;100940.75;;;6.83;88.10
41712;BME280;27399;51.516;13.670;2023-02-20T04:57:53;100932.31;;;7.10;87.60
41712;BME280;27399;51.516;13.670;2023-02-20T05:00:21;100927.66;;;6.94;88.38
41712;BME280;27399;51.516;13.670;2023-02-20T05:02:47;100917.75;;;6.80;89.14
41712;BME280;27399;51.516;13.670;2023-02-20T05:05:33;100921.47;;;6.95;88.89
41712;BME280;27399;51.516;13.670;2023-02-20T05:08:04;100917.25;;;7.08;88.26
41712;BME280;27399;51.516;13.670;2023-02-20T05:10:31;100926.78;;;6.93;89.23
41712;BME280;27399;51.516;13.670;2023-02-20T05:12:57;100923.56;;;7.16;88.74
41712;BME280;27399;51.516;13.670;2023-02-20T05:15:24;100919.81;;;7.02;89.15
41712;BME280;27399;51.516;13.670;2023-02-20T05:17:50;100919.06;;;7.12;88.68
41712;BME280;27399;51.516;13.670;2023-02-20T05:20:17;100913.75;;;7.12;88.87
41712;BME280;27399;51.516;13.670;2023-02-20T05:22:47;100899.69;;;7.18;88.44
41712;BME280;27399;51.516;13.670;2023-02-20T05:25:15;100896.94;;;7.10;88.93
41712;BME280;27399;51.516;13.670;2023-02-20T05:27:41;100885.38;;;7.05;88.89
41712;BME280;27399;51.516;13.670;2023-02-20T05:30:08;100890.94;;;7.25;88.28
41712;BME280;27399;51.516;13.670;2023-02-20T05:32:34;100875.81;;;7.16;88.35
41712;BME280;27399;51.516;13.670;2023-02-20T05:35:00;100880.19;;;7.12;88.20
41712;BME280;27399;51.516;13.670;2023-02-20T05:37:26;100873.09;;;7.13;88.13
41712;BME280;27399;51.516;13.670;2023-02-20T05:39:52;100880.06;;;7.03;88.28
41712;BME280;27399;51.516;13.670;2023-02-20T05:42:19;100873.38;;;7.33;86.88
41712;BME280;27399;51.516;13.670;2023-02-20T05:44:46;100874.97;;;7.20;86.30
41712;BME280;27399;51.516;13.670;2023-02-20T05:47:14;100874.25;;;7.32;86.17
41712;BME280;27399;51.516;13.670;2023-02-20T05:49:39;100871.63;;;7.37;85.75
41712;BME280;27399;51.516;13.670;2023-02-20T05:52:05;100875.25;;;7.45;85.14
41712;BME280;27399;51.516;13.670;2023-02-20T05:54:36;100861.69;;;7.17;84.86
41712;BME280;27399;51.516;13.670;2023-02-20T05:57:03;100861.09;;;7.43;84.64
41712;BME280;27399;51.516;13.670;2023-02-20T05:59:28;100840.94;;;7.62;84.48
41712;BME280;27399;51.516;13.670;2023-02-20T06:01:58;100837.19;;;7.43;84.35
41712;BME280;27399;51.516;13.670;2023-02-20T06:04:24;100833.72;;;7.49;83.47
41712;BME280;27399;51.516;13.670;2023-02-20T06:06:50;100841.69;;;7.47;83.21
41712;BME280;27399;51.516;13.670;2023-02-20T06:09:16;100831.06;;;7.47;83.36
41712;BME280;27399;51.516;13.670;2023-02-20T06:11:49;100808.09;;;7.49;82.19
41712;BME280;27399;51.516;13.670;2023-02-20T06:14:16;100819.53;;;7.45;82.82
41712;BME280;27399;51.516;13.670;2023-02-20T06:16:43;100829.22;;;7.43;82.95
41712;BME280;27399;51.516;13.670;2023-02-20T06:19:10;100820.19;;;7.24;82.92
41712;BME280;27399;51.516;13.670;2023-02-20T06:21:35;100795.47;;;7.26;82.62
41712;BME280;27399;51.516;13.670;2023-02-20T06:24:05;100803.66;;;7.50;82.69
41712;BME280;27399;51.516;13.670;2023-02-20T06:26:31;100803.41;;;7.26;83.62
41712;BME280;27399;51.516;13.670;2023-02-20T06:28:57;100810.66;;;7.43;83.58
41712;BME280;27399;51.516;13.670;2023-02-20T06:31:24;100806.25;;;7.43;83.61
41712;BME280;27399;51.516;13.670;2023-02-20T06:33:53;100796.59;;;7.52;84.45
41712;BME280;27399;51.516;13.670;2023-02-20T06:36:29;100808.03;;;7.44;85.17
41712;BME280;27399;51.516;13.670;2023-02-20T06:38:58;100820.63;;;7.66;84.93
41712;BME280;27399;51.516;13.670;2023-02-20T06:41:26;100819.66;;;7.56;85.69
41712;BME280;27399;51.516;13.670;2023-02-20T06:43:52;100815.44;;;7.80;85.65
41712;BME280;27399;51.516;13.670;2023-02-20T06:46:18;100820.59;;;7.63;85.75
41712;BME280;27399;51.516;13.670;2023-02-20T06:48:49;100824.44;;;7.93;85.57
41712;BME280;27399;51.516;13.670;2023-02-20T06:51:19;100806.34;;;7.53;86.64
41712;BME280;27399;51.516;13.670;2023-02-20T06:53:46;100810.16;;;7.81;86.20
41712;BME280;27399;51.516;13.670;2023-02-20T06:56:17;100811.84;;;7.73;86.15
41712;BME280;27399;51.516;13.670;2023-02-20T06:58:48;100798.50;;;7.65;86.29
41712;BME280;27399;51.516;13.670;2023-02-20T07:01:15;100790.59;;;7.73;85.31
41712;BME280;27399;51.516;13.670;2023-02-20T07:03:44;100797.69;;;7.71;85.40
41712;BME280;27399;51.516;13.670;2023-02-20T07:06:10;100804.03;;;7.88;84.18
41712;BME280;27399;51.516;13.670;2023-02-20T07:08:36;100811.19;;;7.97;83.60
41712;BME280;27399;51.516;13.670;2023-02-20T07:11:02;100802.41;;;8.09;83.47
41712;BME280;27399;51.516;13.670;2023-02-20T07:13:28;100807.66;;;8.00;83.16
41712;BME280;27399;51.516;13.670;2023-02-20T07:15:53;100799.69;;;7.98;82.56
41712;BME280;27399;51.516;13.670;2023-02-20T07:18:19;100803.22;;;7.97;82.43
41712;BME280;27399;51.516;13.670;2023-02-20T07:20:49;100796.25;;;8.16;81.46
41712;BME280;27399;51.516;13.670;2023-02-20T07:23:15;100805.84;;;7.93;81.77
41712;BME280;27399;51.516;13.670;2023-02-20T07:25:41;100813.69;;;7.82;81.19
41712;BME280;27399;51.516;13.670;2023-02-20T07:28:06;100808.44;;;7.86;81.60
41712;BME280;27399;51.516;13.670;2023-02-20T07:30:33;100808.69;;;8.16;80.85
41712;BME280;27399;51.516;13.670;2023-02-20T07:33:01;100802.16;;;7.77;80.64
41712;BME280;27399;51.516;13.670;2023-02-20T07:35:26;100808.50;;;7.96;79.93
41712;BME280;27399;51.516;13.670;2023-02-20T07:37:52;100793.53;;;8.05;79.72
41712;BME280;27399;51.516;13.670;2023-02-20T07:40:20;100767.78;;;7.94;79.38
41712;BME280;27399;51.516;13.670;2023-02-20T07:42:46;100761.66;;;8.05;79.28
41712;BME280;27399;51.516;13.670;2023-02-20T07:45:12;100776.75;;;8.11;79.33
41712;BME280;27399;51.516;13.670;2023-02-20T07:47:37;100785.69;;;8.22;78.54
41712;BME280;27399;51.516;13.670;2023-02-20T07:50:03;100782.97;;;8.16;78.64
41712;BME280;27399;51.516;13.670;2023-02-20T07:52:29;100762.59;;;8.15;78.27
41712;BME280;27399;51.516;13.670;2023-02-20T07:54:55;100730.59;;;7.95;78.78
41712;BME280;27399;51.516;13.670;2023-02-20T07:57:20;100728.00;;;8.03;77.30
41712;BME280;27399;51.516;13.670;2023-02-20T07:59:46;100751.16;;;8.22;77.73
41712;BME280;27399;51.516;13.670;2023-02-20T08:02:12;100764.63;;;8.50;77.16
41712;BME280;27399;51.516;13.670;2023-02-20T08:04:37;100742.22;;;8.13;76.82
41712;BME280;27399;51.516;13.670;2023-02-20T08:07:03;100758.28;;;8.28;76.06
41712;BME280;27399;51.516;13.670;2023-02-20T08:09:31;100763.69;;;8.41;76.28
41712;BME280;27399;51.516;13.670;2023-02-20T08:11:57;100761.88;;;8.38;75.94
41712;BME280;27399;51.516;13.670;2023-02-20T08:14:22;100745.16;;;8.55;75.69
41712;BME280;27399;51.516;13.670;2023-02-20T08:16:48;100733.59;;;8.46;75.67
41712;BME280;27399;51.516;13.670;2023-02-20T08:19:14;100731.00;;;8.59;75.26
41712;BME280;27399;51.516;13.670;2023-02-20T08:21:40;100709.75;;;8.68;74.70
41712;BME280;27399;51.516;13.670;2023-02-20T08:24:06;100754.13;;;8.75;74.77
41712;BME280;27399;51.516;13.670;2023-02-20T08:26:31;100753.22;;;8.72;74.29
41712;BME280;27399;51.516;13.670;2023-02-20T08:28:59;100761.25;;;8.82;75.46
41712;BME280;27399;51.516;13.670;2023-02-20T08:31:25;100749.75;;;8.94;73.44
41712;BME280;27399;51.516;13.670;2023-02-20T08:33:52;100719.53;;;8.74;73.16
41712;BME280;27399;51.516;13.670;2023-02-20T08:36:18;100714.31;;;8.97;73.57
41712;BME280;27399;51.516;13.670;2023-02-20T08:38:44;100707.16;;;8.79;73.26
41712;BME280;27399;51.516;13.670;2023-02-20T08:41:11;100700.94;;;8.78;73.70
41712;BME280;27399;51.516;13.670;2023-02-20T08:43:39;100701.88;;;8.97;72.65
41712;BME280;27399;51.516;13.670;2023-02-20T08:46:06;100690.38;;;8.97;73.33
41712;BME280;27399;51.516;13.670;2023-02-20T08:48:32;100693.88;;;8.87;72.50
41712;BME280;27399;51.516;13.670;2023-02-20T08:50:58;100699.25;;;9.08;73.62
41712;BME280;27399;51.516;13.670;2023-02-20T08:53:24;100693.09;;;9.36;72.90
41712;BME280;27399;51.516;13.670;2023-02-20T08:55:49;100685.06;;;9.12;72.22
41712;BME280;27399;51.516;13.670;2023-02-20T08:58:22;100708.16;;;9.20;72.64
41712;BME280;27399;51.516;13.670;2023-02-20T09:00:48;100693.06;;;9.11;72.61
41712;BME280;27399;51.516;13.670;2023-02-20T09:03:15;100682.41;;;9.11;73.24
41712;BME280;27399;51.516;13.670;2023-02-20T09:05:41;100678.84;;;9.13;72.95
41712;BME280;27399;51.516;13.670;2023-02-20T09:08:07;100677.06;;;9.08;73.39
41712;BME280;27399;51.516;13.670;2023-02-20T09:10:33;100677.06;;;9.03;72.98
41712;BME280;27399;51.516;13.670;2023-02-20T09:12:59;100669.13;;;9.20;74.29
41712;BME280;27399;51.516;13.670;2023-02-20T09:15:24;100658.47;;;9.06;73.86
41712;BME280;27399;51.516;13.670;2023-02-20T09:17:51;100646.03;;;8.96;73.46
41712;BME280;27399;51.516;13.670;2023-02-20T09:20:19;100645.16;;;9.23;74.10
41712;BME280;27399;51.516;13.670;2023-02-20T09:22:48;100646.06;;;9.13;73.19
41712;BME280;27399;51.516;13.670;2023-02-20T09:25:15;100636.25;;;9.06;73.68
41712;BME280;27399;51.516;13.670;2023-02-20T09:27:41;100642.50;;;9.37;73.74
41712;BME280;27399;51.516;13.670;2023-02-20T09:30:08;100638.94;;;9.30;73.62
41712;BME280;27399;51.516;13.670;2023-02-20T09:32:36;100646.91;;;9.09;74.16
41712;BME280;27399;51.516;13.670;2023-02-20T09:35:01;100644.25;;;9.23;73.94
41712;BME280;27399;51.516;13.670;2023-02-20T09:37:27;100653.16;;;9.19;74.04
41712;BME280;27399;51.516;13.670;2023-02-20T09:39:53;100642.50;;;9.46;73.72
41712;BME280;27399;51.516;13.670;2023-02-20T09:42:33;100637.19;;;9.31;73.65
41712;BME280;27399;51.516;13.670;2023-02-20T09:45:25;100624.75;;;9.22;73.62
41712;BME280;27399;51.516;13.670;2023-02-20T09:50:48;100618.56;;;9.20;73.99
41712;BME280;27399;51.516;13.670;2023-02-20T09:55:50;100628.28;;;9.32;74.25
41712;BME280;27399;51.516;13.670;2023-02-20T09:58:39;100611.44;;;9.58;73.84
41712;BME280;27399;51.516;13.670;2023-02-20T10:01:06;100614.09;;;9.38;74.03
41712;BME280;27399;51.516;13.670;2023-02-20T10:03:38;100607.88;;;9.59;74.03
41712;BME280;27399;51.516;13.670;2023-02-20T10:06:16;100611.44;;;9.41;74.00
41712;BME280;27399;51.516;13.670;2023-02-20T10:08:42;100597.25;;;9.42;73.31
41712;BME280;27399;51.516;13.670;2023-02-20T10:11:10;100581.28;;;9.42;73.84
41712;BME280;27399;51.516;13.670;2023-02-20T10:13:53;100591.91;;;9.60;73.68
41712;BME280;27399;51.516;13.670;2023-02-20T10:16:46;100588.34;;;9.65;73.25
41712;BME280;27399;51.516;13.670;2023-02-20T10:19:29;100575.84;;;9.87;73.51
41712;BME280;27399;51.516;13.670;2023-02-20T10:22:20;100576.81;;;9.73;73.46
41712;BME280;27399;51.516;13.670;2023-02-20T10:27:47;100573.19;;;9.93;72.83
41712;BME280;27399;51.516;13.670;2023-02-20T10:30:38;100558.06;;;9.98;72.41
41712;BME280;27399;51.516;13.670;2023-02-20T10:35:46;100545.53;;;10.17;72.44
41712;BME280;27399;51.516;13.670;2023-02-20T10:38:18;100536.69;;;10.11;72.03
41712;BME280;27399;51.516;13.670;2023-02-20T10:40:48;100547.28;;;10.20;72.07
41712;BME280;27399;51.516;13.670;2023-02-20T10:43:33;100525.09;;;10.19;71.76
41712;BME280;27399;51.516;13.670;2023-02-20T10:48:38;100503.66;;;10.43;71.49
41712;BME280;27399;51.516;13.670;2023-02-20T10:51:13;100475.25;;;10.34;71.70
41712;BME280;27399;51.516;13.670;2023-02-20T10:53:54;100489.44;;;10.44;71.70
41712;BME280;27399;51.516;13.670;2023-02-20T10:59:14;100481.41;;;10.45;70.63
41712;BME280;27399;51.516;13.670;2023-02-20T11:01:43;100478.63;;;10.65;70.73
41712;BME280;27399;51.516;13.670;2023-02-20T11:04:20;100475.84;;;10.76;70.48
41712;BME280;27399;51.516;13.670;2023-02-20T11:06:59;100473.19;;;10.75;69.88
41712;BME280;27399;51.516;13.670;2023-02-20T11:09:26;100474.25;;;10.55;70.07
41712;BME280;27399;51.516;13.670;2023-02-20T11:11:53;100459.06;;;10.63;69.72
41712;BME280;27399;51.516;13.670;2023-02-20T11:14:22;100457.91;;;10.92;69.21
41712;BME280;27399;51.516;13.670;2023-02-20T11:16:56;100450.06;;;10.77;69.51
41712;BME280;27399;51.516;13.670;2023-02-20T11:21:53;100448.06;;;10.99;69.35
41712;BME280;27399;51.516;13.670;2023-02-20T11:24:33;100446.09;;;11.21;68.15
41712;BME280;27399;51.516;13.670;2023-02-20T11:27:08;100439.06;;;11.09;68.29
41712;BME280;27399;51.516;13.670;2023-02-20T11:29:42;100438.22;;;11.09;67.89
41712;BME280;27399;51.516;13.670;2023-02-20T11:32:37;100421.19;;;11.19;67.48
41712;BME280;27399;51.516;13.670;2023-02-20T11:37:41;100415.00;;;11.87;67.19
41712;BME280;27399;51.516;13.670;2023-02-20T11:40:28;100402.75;;;11.71;66.41
41712;BME280;27399;51.516;13.670;2023-02-20T11:42:55;100407.66;;;12.05;66.23
41712;BME280;27399;51.516;13.670;2023-02-20T11:45:24;100399.66;;;12.05;66.20
41712;BME280;27399;51.516;13.670;2023-02-20T11:48:10;100390.94;;;11.87;66.00
41712;BME280;27399;51.516;13.670;2023-02-20T11:50:45;100391.69;;;11.99;65.42
41712;BME280;27399;51.516;13.670;2023-02-20T11:53:22;100389.09;;;11.91;65.37
41712;BME280;27399;51.516;13.670;2023-02-20T11:56:06;100396.22;;;11.92;64.97
41712;BME280;27399;51.516;13.670;2023-02-20T11:58:33;100395.09;;;12.10;65.18
41712;BME280;27399;51.516;13.670;2023-02-20T12:00:59;100384.47;;;12.05;65.07
41712;BME280;27399;51.516;13.670;2023-02-20T12:03:29;100388.81;;;12.14;66.43
41712;BME280;27399;51.516;13.670;2023-02-20T12:05:55;100374.44;;;12.21;65.22
41712;BME280;27399;51.516;13.670;2023-02-20T12:13:44;100360.44;;;12.59;65.22
41712;BME280;27399;51.516;13.670;2023-02-20T12:24:55;100351.31;;;12.70;64.39
41712;BME280;27399;51.516;13.670;2023-02-20T12:27:34;100347.22;;;12.98;64.53
41712;BME280;27399;51.516;13.670;2023-02-20T12:35:54;100321.59;;;13.30;64.24
41712;BME280;27399;51.516;13.670;2023-02-20T12:47:21;100331.38;;;13.31;63.85
41712;BME280;27399;51.516;13.670;2023-02-20T12:52:55;100341.53;;;13.13;63.99
41712;BME280;27399;51.516;13.670;2023-02-20T12:55:37;100339.34;;;12.90;65.14
41712;BME280;27399;51.516;13.670;2023-02-20T12:58:42;100326.91;;;12.88;64.88
41712;BME280;27399;51.516;13.670;2023-02-20T13:01:12;100317.97;;;12.87;65.13
41712;BME280;27399;51.516;13.670;2023-02-20T13:03:56;100305.81;;;12.70;65.66
41712;BME280;27399;51.516;13.670;2023-02-20T13:06:43;100286.44;;;13.03;66.13
41712;BME280;27399;51.516;13.670;2023-02-20T13:09:23;100306.63;;;12.74;66.14
41712;BME280;27399;51.516;13.670;2023-02-20T13:11:53;100289.66;;;12.75;66.78
41712;BME280;27399;51.516;13.670;2023-02-20T13:14:54;100297.47;;;12.88;66.39
41712;BME280;27399;51.516;13.670;2023-02-20T13:18:40;100291.88;;;13.00;66.06
41712;BME280;27399;51.516;13.670;2023-02-20T13:20:37;100299.03;;;12.96;66.43
41712;BME280;27399;51.516;13.670;2023-02-20T13:23:25;100287.94;;;12.73;66.88
41712;BME280;27399;51.516;13.670;2023-02-20T13:25:52;100292.91;;;12.91;67.73
41712;BME280;27399;51.516;13.670;2023-02-20T13:28:32;100300.31;;;12.78;66.69
41712;BME280;27399;51.516;13.670;2023-02-20T13:36:45;100282.41;;;12.82;67.69
41712;BME280;27399;51.516;13.670;2023-02-20T13:44:40;100297.16;;;12.58;67.45
41712;BME280;27399;51.516;13.670;2023-02-20T13:55:01;100298.97;;;12.55;68.48
41712;BME280;27399;51.516;13.670;2023-02-20T13:57:30;100301.84;;;12.43;68.98
41712;BME280;27399;51.516;13.670;2023-02-20T13:59:59;100290.25;;;12.44;69.41
41712;BME280;27399;51.516;13.670;2023-02-20T14:02:26;100292.16;;;12.37;68.97
41712;BME280;27399;51.516;13.670;2023-02-20T14:05:00;100300.22;;;12.34;68.47
41712;BME280;27399;51.516;13.670;2023-02-20T14:07:28;100301.69;;;12.52;69.11
41712;BME280;27399;51.516;13.670;2023-02-20T14:13:05;100303.41;;;12.57;69.64
41712;BME280;27399;51.516;13.670;2023-02-20T14:15:51;100294.69;;;12.45;70.21
41712;BME280;27399;51.516;13.670;2023-02-20T14:18:20;100295.06;;;12.23;70.60
41712;BME280;27399;51.516;13.670;2023-02-20T14:20:50;100295.69;;;12.39;70.45
41712;BME280;27399;51.516;13.670;2023-02-20T14:23:27;100305.59;;;12.33;70.26
41712;BME280;27399;51.516;13.670;2023-02-20T14:25:58;100301.13;;;12.33;71.54
41712;BME280;27399;51.516;13.670;2023-02-20T14:28:25;100285.69;;;11.99;71.17
41712;BME280;27399;51.516;13.670;2023-02-20T14:31:05;100301.34;;;12.22;71.14
41712;BME280;27399;51.516;13.670;2023-02-20T14:33:32;100297.72;;;12.27;71.16
41712;BME280;27399;51.516;13.670;2023-02-20T14:39:09;100303.13;;;12.20;72.07
41712;BME280;27399;51.516;13.670;2023-02-20T14:41:54;100288.38;;;11.98;72.81
41712;BME280;27399;51.516;13.670;2023-02-20T14:44:20;100298.63;;;12.24;71.85